sensor_id;sensor_type;location;lat;lon;timestamp;P1;durP1;ratioP1;P2;durP2;ratioP2
846;SDS011;410;48.954;9.474;2023-02-15T00:00:08;24.25;;;16.80;;
846;SDS011;410;48.954;9.474;2023-02-15T00:02:12;24.70;;;16.05;;
846;SDS011;410;48.954;9.474;2023-02-15T00:04:17;23.83;;;15.75;;
846;SDS011;410;48.954;9.474;2023-02-15T00:06:22;23.63;;;16.30;;
846;SDS011;410;48.954;9.474;2023-02-15T00:08:25;23.27;;;15.02;;
846;SDS011;410;48.954;9.474;2023-02-15T00:10:29;23.95;;;15.88;;
846;SDS011;410;48.954;9.474;2023-02-15T00:12:32;28.70;;;19.05;;
846;SDS011;410;48.954;9.474;2023-02-15T00:14:35;32.80;;;21.30;;
846;SDS011;410;48.954;9.474;2023-02-15T00:16:38;23.35;;;16.00;;
846;SDS011;410;48.954;9.474;2023-02-15T00:18:42;25.55;;;15.95;;
846;SDS011;410;48.954;9.474;2023-02-15T00:20:45;25.50;;;16.92;;
846;SDS011;410;48.954;9.474;2023-02-15T00:22:49;24.45;;;15.70;;
846;SDS011;410;48.954;9.474;2023-02-15T00:24:52;23.00;;;14.38;;
846;SDS011;410;48.954;9.474;2023-02-15T00:26:56;23.70;;;16.33;;
846;SDS011;410;48.954;9.474;2023-02-15T00:28:59;22.95;;;17.05;;
846;SDS011;410;48.954;9.474;2023-02-15T00:31:03;22.55;;;14.27;;
846;SDS011;410;48.954;9.474;2023-02-15T00:33:09;24.70;;;15.98;;
846;SDS011;410;48.954;9.474;2023-02-15T00:35:14;24.30;;;15.95;;
846;SDS011;410;48.954;9.474;2023-02-15T00:37:17;24.70;;;16.92;;
846;SDS011;410;48.954;9.474;2023-02-15T00:39:23;29.15;;;19.17;;
846;SDS011;410;48.954;9.474;2023-02-15T00:41:27;23.38;;;15.70;;
846;SDS011;410;48.954;9.474;2023-02-15T00:43:30;23.70;;;15.63;;
846;SDS011;410;48.954;9.474;2023-02-15T00:45:36;24.05;;;15.50;;
846;SDS011;410;48.954;9.474;2023-02-15T00:47:39;22.73;;;15.27;;
846;SDS011;410;48.954;9.474;2023-02-15T00:49:43;26.05;;;16.50;;
846;SDS011;410;48.954;9.474;2023-02-15T00:51:46;24.08;;;16.15;;
846;SDS011;410;48.954;9.474;2023-02-15T00:53:49;22.40;;;15.20;;
846;SDS011;410;48.954;9.474;2023-02-15T00:55:54;25.35;;;15.70;;
846;SDS011;410;48.954;9.474;2023-02-15T00:57:57;24.38;;;15.02;;
846;SDS011;410;48.954;9.474;2023-02-15T01:00:00;23.02;;;15.20;;
846;SDS011;410;48.954;9.474;2023-02-15T01:02:04;23.65;;;15.70;;
846;SDS011;410;48.954;9.474;2023-02-15T01:04:07;21.70;;;14.32;;
846;SDS011;410;48.954;9.474;2023-02-15T01:06:10;21.67;;;14.80;;
846;SDS011;410;48.954;9.474;2023-02-15T01:08:13;23.35;;;13.90;;
846;SDS011;410;48.954;9.474;2023-02-15T01:10:17;22.05;;;15.45;;
846;SDS011;410;48.954;9.474;2023-02-15T01:12:22;21.58;;;14.23;;
846;SDS011;410;48.954;9.474;2023-02-15T01:14:25;22.25;;;14.70;;
846;SDS011;410;48.954;9.474;2023-02-15T01:16:28;22.63;;;14.90;;
846;SDS011;410;48.954;9.474;2023-02-15T01:18:33;25.35;;;15.45;;
846;SDS011;410;48.954;9.474;2023-02-15T01:20:37;21.42;;;13.85;;
846;SDS011;410;48.954;9.474;2023-02-15T01:22:43;24.27;;;15.10;;
846;SDS011;410;48.954;9.474;2023-02-15T01:24:48;21.85;;;14.38;;
846;SDS011;410;48.954;9.474;2023-02-15T01:26:51;21.42;;;13.38;;
846;SDS011;410;48.954;9.474;2023-02-15T01:28:56;21.23;;;14.60;;
846;SDS011;410;48.954;9.474;2023-02-15T01:30:59;23.13;;;14.63;;
846;SDS011;410;48.954;9.474;2023-02-15T01:33:02;21.27;;;14.80;;
846;SDS011;410;48.954;9.474;2023-02-15T01:35:06;22.98;;;14.88;;
846;SDS011;410;48.954;9.474;2023-02-15T01:37:09;21.25;;;15.35;;
846;SDS011;410;48.954;9.474;2023-02-15T01:39:12;22.02;;;15.32;;
846;SDS011;410;48.954;9.474;2023-02-15T01:41:16;21.35;;;14.75;;
846;SDS011;410;48.954;9.474;2023-02-15T01:43:37;24.05;;;14.70;;
846;SDS011;410;48.954;9.474;2023-02-15T01:45:43;19.73;;;13.90;;
846;SDS011;410;48.954;9.474;2023-02-15T01:47:50;21.50;;;14.90;;
846;SDS011;410;48.954;9.474;2023-02-15T01:50:00;23.85;;;14.98;;
846;SDS011;410;48.954;9.474;2023-02-15T01:52:06;20.67;;;13.77;;
846;SDS011;410;48.954;9.474;2023-02-15T01:54:11;18.98;;;13.82;;
846;SDS011;410;48.954;9.474;2023-02-15T01:56:21;21.52;;;14.55;;
846;SDS011;410;48.954;9.474;2023-02-15T01:58:27;21.55;;;13.32;;
846;SDS011;410;48.954;9.474;2023-02-15T02:00:31;24.75;;;15.23;;
846;SDS011;410;48.954;9.474;2023-02-15T02:02:36;24.27;;;15.95;;
846;SDS011;410;48.954;9.474;2023-02-15T02:04:40;23.17;;;15.15;;
846;SDS011;410;48.954;9.474;2023-02-15T02:06:46;25.70;;;15.02;;
846;SDS011;410;48.954;9.474;2023-02-15T02:08:51;24.42;;;15.70;;
846;SDS011;410;48.954;9.474;2023-02-15T02:10:54;20.90;;;14.65;;
846;SDS011;410;48.954;9.474;2023-02-15T02:12:58;25.17;;;15.88;;
846;SDS011;410;48.954;9.474;2023-02-15T02:15:04;21.50;;;15.57;;
846;SDS011;410;48.954;9.474;2023-02-15T02:17:09;25.48;;;15.75;;
846;SDS011;410;48.954;9.474;2023-02-15T02:19:31;23.75;;;14.55;;
846;SDS011;410;48.954;9.474;2023-02-15T02:21:56;21.17;;;14.60;;
846;SDS011;410;48.954;9.474;2023-02-15T02:24:35;26.60;;;16.17;;
846;SDS011;410;48.954;9.474;2023-02-15T02:27:09;26.65;;;15.80;;
846;SDS011;410;48.954;9.474;2023-02-15T02:29:40;21.85;;;14.80;;
846;SDS011;410;48.954;9.474;2023-02-15T02:32:07;21.42;;;14.13;;
846;SDS011;410;48.954;9.474;2023-02-15T02:34:21;24.50;;;14.73;;
846;SDS011;410;48.954;9.474;2023-02-15T02:36:31;22.05;;;14.25;;
846;SDS011;410;48.954;9.474;2023-02-15T02:38:44;21.67;;;14.43;;
846;SDS011;410;48.954;9.474;2023-02-15T02:40:55;29.48;;;16.02;;
846;SDS011;410;48.954;9.474;2023-02-15T02:43:04;22.33;;;14.70;;
846;SDS011;410;48.954;9.474;2023-02-15T02:45:12;24.13;;;15.75;;
846;SDS011;410;48.954;9.474;2023-02-15T02:47:19;22.35;;;14.70;;
846;SDS011;410;48.954;9.474;2023-02-15T02:49:33;21.55;;;14.13;;
846;SDS011;410;48.954;9.474;2023-02-15T02:51:37;19.38;;;13.02;;
846;SDS011;410;48.954;9.474;2023-02-15T02:53:40;23.70;;;14.60;;
846;SDS011;410;48.954;9.474;2023-02-15T02:55:45;20.27;;;14.02;;
846;SDS011;410;48.954;9.474;2023-02-15T02:57:52;23.90;;;14.95;;
846;SDS011;410;48.954;9.474;2023-02-15T02:59:56;24.38;;;14.73;;
846;SDS011;410;48.954;9.474;2023-02-15T03:02:03;22.13;;;13.93;;
846;SDS011;410;48.954;9.474;2023-02-15T03:04:12;22.60;;;14.98;;
846;SDS011;410;48.954;9.474;2023-02-15T03:06:21;20.50;;;13.60;;
846;SDS011;410;48.954;9.474;2023-02-15T03:08:30;23.38;;;14.55;;
846;SDS011;410;48.954;9.474;2023-02-15T03:10:36;24.67;;;14.90;;
846;SDS011;410;48.954;9.474;2023-02-15T03:12:41;23.08;;;15.73;;
846;SDS011;410;48.954;9.474;2023-02-15T03:14:44;21.92;;;14.50;;
846;SDS011;410;48.954;9.474;2023-02-15T03:16:51;29.23;;;15.75;;
846;SDS011;410;48.954;9.474;2023-02-15T03:18:55;20.40;;;13.77;;
846;SDS011;410;48.954;9.474;2023-02-15T03:21:04;21.63;;;14.45;;
846;SDS011;410;48.954;9.474;2023-02-15T03:23:13;20.10;;;14.77;;
846;SDS011;410;48.954;9.474;2023-02-15T03:25:19;22.67;;;14.93;;
846;SDS011;410;48.954;9.474;2023-02-15T03:27:25;23.25;;;14.38;;
846;SDS011;410;48.954;9.474;2023-02-15T03:29:35;21.98;;;14.93;;
846;SDS011;410;48.954;9.474;2023-02-15T03:31:40;20.60;;;14.30;;
846;SDS011;410;48.954;9.474;2023-02-15T03:33:50;20.20;;;14.20;;
846;SDS011;410;48.954;9.474;2023-02-15T03:36:01;21.92;;;14.48;;
846;SDS011;410;48.954;9.474;2023-02-15T03:38:06;19.30;;;14.15;;
846;SDS011;410;48.954;9.474;2023-02-15T03:40:14;24.88;;;15.20;;
846;SDS011;410;48.954;9.474;2023-02-15T03:42:38;20.77;;;13.65;;
846;SDS011;410;48.954;9.474;2023-02-15T03:44:45;19.48;;;14.43;;
846;SDS011;410;48.954;9.474;2023-02-15T03:46:53;22.40;;;14.82;;
846;SDS011;410;48.954;9.474;2023-02-15T03:49:01;21.48;;;13.52;;
846;SDS011;410;48.954;9.474;2023-02-15T03:51:07;20.77;;;14.30;;
846;SDS011;410;48.954;9.474;2023-02-15T03:53:29;22.65;;;13.75;;
846;SDS011;410;48.954;9.474;2023-02-15T03:55:34;20.55;;;13.40;;
846;SDS011;410;48.954;9.474;2023-02-15T03:57:37;22.40;;;14.13;;
846;SDS011;410;48.954;9.474;2023-02-15T04:00:15;23.50;;;14.02;;
846;SDS011;410;48.954;9.474;2023-02-15T04:02:58;20.88;;;13.70;;
846;SDS011;410;48.954;9.474;2023-02-15T04:05:09;25.13;;;16.40;;
846;SDS011;410;48.954;9.474;2023-02-15T04:07:13;19.48;;;13.10;;
846;SDS011;410;48.954;9.474;2023-02-15T04:09:16;21.75;;;14.07;;
846;SDS011;410;48.954;9.474;2023-02-15T04:11:38;20.40;;;14.70;;
846;SDS011;410;48.954;9.474;2023-02-15T04:13:41;23.45;;;15.43;;
846;SDS011;410;48.954;9.474;2023-02-15T04:15:44;19.88;;;13.82;;
846;SDS011;410;48.954;9.474;2023-02-15T04:18:07;20.42;;;13.82;;
846;SDS011;410;48.954;9.474;2023-02-15T04:20:10;24.88;;;15.05;;
846;SDS011;410;48.954;9.474;2023-02-15T04:22:31;22.55;;;15.05;;
846;SDS011;410;48.954;9.474;2023-02-15T04:24:51;20.65;;;14.13;;
846;SDS011;410;48.954;9.474;2023-02-15T04:27:15;20.48;;;14.68;;
846;SDS011;410;48.954;9.474;2023-02-15T04:29:18;22.58;;;14.27;;
846;SDS011;410;48.954;9.474;2023-02-15T04:31:21;21.17;;;13.77;;
846;SDS011;410;48.954;9.474;2023-02-15T04:33:25;22.48;;;15.27;;
846;SDS011;410;48.954;9.474;2023-02-15T04:35:28;19.23;;;13.90;;
846;SDS011;410;48.954;9.474;2023-02-15T04:37:33;22.02;;;14.38;;
846;SDS011;410;48.954;9.474;2023-02-15T04:39:36;22.42;;;15.05;;
846;SDS011;410;48.954;9.474;2023-02-15T04:41:40;19.35;;;13.82;;
846;SDS011;410;48.954;9.474;2023-02-15T04:43:44;20.73;;;14.40;;
846;SDS011;410;48.954;9.474;2023-02-15T04:45:48;21.02;;;14.43;;
846;SDS011;410;48.954;9.474;2023-02-15T04:47:52;22.48;;;15.02;;
846;SDS011;410;48.954;9.474;2023-02-15T04:49:55;22.05;;;14.40;;
846;SDS011;410;48.954;9.474;2023-02-15T04:51:58;22.20;;;14.90;;
846;SDS011;410;48.954;9.474;2023-02-15T04:54:02;23.17;;;13.85;;
846;SDS011;410;48.954;9.474;2023-02-15T04:56:05;23.65;;;14.20;;
846;SDS011;410;48.954;9.474;2023-02-15T04:58:08;20.70;;;14.60;;
846;SDS011;410;48.954;9.474;2023-02-15T05:00:13;21.92;;;14.25;;
846;SDS011;410;48.954;9.474;2023-02-15T05:02:18;20.63;;;13.90;;
846;SDS011;410;48.954;9.474;2023-02-15T05:04:22;20.15;;;13.95;;
846;SDS011;410;48.954;9.474;2023-02-15T05:06:27;18.92;;;13.57;;
846;SDS011;410;48.954;9.474;2023-02-15T05:08:32;24.67;;;14.93;;
846;SDS011;410;48.954;9.474;2023-02-15T05:10:35;22.95;;;14.57;;
846;SDS011;410;48.954;9.474;2023-02-15T05:12:38;27.40;;;17.75;;
846;SDS011;410;48.954;9.474;2023-02-15T05:14:41;27.85;;;19.05;;
846;SDS011;410;48.954;9.474;2023-02-15T05:16:45;28.38;;;17.70;;
846;SDS011;410;48.954;9.474;2023-02-15T05:18:49;22.48;;;15.07;;
846;SDS011;410;48.954;9.474;2023-02-15T05:20:52;25.33;;;16.48;;
846;SDS011;410;48.954;9.474;2023-02-15T05:22:55;22.67;;;16.02;;
846;SDS011;410;48.954;9.474;2023-02-15T05:24:58;21.35;;;15.45;;
846;SDS011;410;48.954;9.474;2023-02-15T05:27:22;22.77;;;15.93;;
846;SDS011;410;48.954;9.474;2023-02-15T05:29:43;19.85;;;14.52;;
846;SDS011;410;48.954;9.474;2023-02-15T05:31:47;22.00;;;14.63;;
846;SDS011;410;48.954;9.474;2023-02-15T05:33:50;21.30;;;15.35;;
846;SDS011;410;48.954;9.474;2023-02-15T05:35:54;23.20;;;15.43;;
846;SDS011;410;48.954;9.474;2023-02-15T05:37:57;20.08;;;14.55;;
846;SDS011;410;48.954;9.474;2023-02-15T05:40:00;24.70;;;15.02;;
846;SDS011;410;48.954;9.474;2023-02-15T05:42:03;21.00;;;14.77;;
846;SDS011;410;48.954;9.474;2023-02-15T05:44:07;22.63;;;14.90;;
846;SDS011;410;48.954;9.474;2023-02-15T05:46:10;25.70;;;15.13;;
846;SDS011;410;48.954;9.474;2023-02-15T05:48:16;22.80;;;15.35;;
846;SDS011;410;48.954;9.474;2023-02-15T05:50:20;24.55;;;15.38;;
846;SDS011;410;48.954;9.474;2023-02-15T05:52:23;21.75;;;14.25;;
846;SDS011;410;48.954;9.474;2023-02-15T05:54:26;23.50;;;15.38;;
846;SDS011;410;48.954;9.474;2023-02-15T05:56:30;23.30;;;15.13;;
846;SDS011;410;48.954;9.474;2023-02-15T05:58:34;23.77;;;15.50;;
846;SDS011;410;48.954;9.474;2023-02-15T06:00:39;20.85;;;14.65;;
846;SDS011;410;48.954;9.474;2023-02-15T06:02:42;20.00;;;13.57;;
846;SDS011;410;48.954;9.474;2023-02-15T06:04:46;22.85;;;14.73;;
846;SDS011;410;48.954;9.474;2023-02-15T06:06:50;22.70;;;14.70;;
846;SDS011;410;48.954;9.474;2023-02-15T06:08:53;19.80;;;14.50;;
846;SDS011;410;48.954;9.474;2023-02-15T06:10:56;20.17;;;14.60;;
846;SDS011;410;48.954;9.474;2023-02-15T06:12:59;21.63;;;15.40;;
846;SDS011;410;48.954;9.474;2023-02-15T06:15:02;23.90;;;14.30;;
846;SDS011;410;48.954;9.474;2023-02-15T06:17:06;23.50;;;15.63;;
846;SDS011;410;48.954;9.474;2023-02-15T06:19:09;22.45;;;15.35;;
846;SDS011;410;48.954;9.474;2023-02-15T06:21:14;21.30;;;14.15;;
846;SDS011;410;48.954;9.474;2023-02-15T06:23:17;24.05;;;15.32;;
846;SDS011;410;48.954;9.474;2023-02-15T06:25:20;27.67;;;16.10;;
846;SDS011;410;48.954;9.474;2023-02-15T06:27:23;36.80;;;22.35;;
846;SDS011;410;48.954;9.474;2023-02-15T06:29:26;29.45;;;18.52;;
846;SDS011;410;48.954;9.474;2023-02-15T06:31:29;26.20;;;16.95;;
846;SDS011;410;48.954;9.474;2023-02-15T06:33:33;34.35;;;19.77;;
846;SDS011;410;48.954;9.474;2023-02-15T06:35:36;29.92;;;20.52;;
846;SDS011;410;48.954;9.474;2023-02-15T06:37:41;30.40;;;19.55;;
846;SDS011;410;48.954;9.474;2023-02-15T06:39:44;23.25;;;14.75;;
846;SDS011;410;48.954;9.474;2023-02-15T06:41:47;21.90;;;14.95;;
846;SDS011;410;48.954;9.474;2023-02-15T06:43:51;22.80;;;16.08;;
846;SDS011;410;48.954;9.474;2023-02-15T06:45:54;21.05;;;14.85;;
846;SDS011;410;48.954;9.474;2023-02-15T06:47:57;23.92;;;15.10;;
846;SDS011;410;48.954;9.474;2023-02-15T06:50:01;21.95;;;15.55;;
846;SDS011;410;48.954;9.474;2023-02-15T06:52:04;23.23;;;15.07;;
846;SDS011;410;48.954;9.474;2023-02-15T06:54:09;22.20;;;15.60;;
846;SDS011;410;48.954;9.474;2023-02-15T06:56:12;22.02;;;15.43;;
846;SDS011;410;48.954;9.474;2023-02-15T06:58:15;22.60;;;14.82;;
846;SDS011;410;48.954;9.474;2023-02-15T07:00:19;21.77;;;15.10;;
846;SDS011;410;48.954;9.474;2023-02-15T07:02:24;23.38;;;15.73;;
846;SDS011;410;48.954;9.474;2023-02-15T07:04:27;23.25;;;14.60;;
846;SDS011;410;48.954;9.474;2023-02-15T07:06:32;22.33;;;14.60;;
846;SDS011;410;48.954;9.474;2023-02-15T07:08:37;20.42;;;15.30;;
846;SDS011;410;48.954;9.474;2023-02-15T07:10:44;22.90;;;14.98;;
846;SDS011;410;48.954;9.474;2023-02-15T07:12:47;23.85;;;16.80;;
846;SDS011;410;48.954;9.474;2023-02-15T07:14:49;23.23;;;16.50;;
846;SDS011;410;48.954;9.474;2023-02-15T07:16:52;22.92;;;15.52;;
846;SDS011;410;48.954;9.474;2023-02-15T07:18:56;27.35;;;16.92;;
846;SDS011;410;48.954;9.474;2023-02-15T07:20:59;27.48;;;18.55;;
846;SDS011;410;48.954;9.474;2023-02-15T07:23:03;30.80;;;19.85;;
846;SDS011;410;48.954;9.474;2023-02-15T07:25:07;34.08;;;19.60;;
846;SDS011;410;48.954;9.474;2023-02-15T07:27:12;49.67;;;28.88;;
846;SDS011;410;48.954;9.474;2023-02-15T07:29:16;49.83;;;29.27;;
846;SDS011;410;48.954;9.474;2023-02-15T07:31:19;26.80;;;18.20;;
846;SDS011;410;48.954;9.474;2023-02-15T07:33:22;26.00;;;17.65;;
846;SDS011;410;48.954;9.474;2023-02-15T07:35:26;28.85;;;17.52;;
846;SDS011;410;48.954;9.474;2023-02-15T07:37:29;25.92;;;17.63;;
846;SDS011;410;48.954;9.474;2023-02-15T07:39:32;27.85;;;17.45;;
846;SDS011;410;48.954;9.474;2023-02-15T07:41:35;25.35;;;18.33;;
846;SDS011;410;48.954;9.474;2023-02-15T07:43:46;24.48;;;17.10;;
846;SDS011;410;48.954;9.474;2023-02-15T07:45:50;25.67;;;17.30;;
846;SDS011;410;48.954;9.474;2023-02-15T07:47:53;23.38;;;16.65;;
846;SDS011;410;48.954;9.474;2023-02-15T07:49:56;25.45;;;18.45;;
846;SDS011;410;48.954;9.474;2023-02-15T07:52:00;24.63;;;17.27;;
846;SDS011;410;48.954;9.474;2023-02-15T07:54:04;26.63;;;18.33;;
846;SDS011;410;48.954;9.474;2023-02-15T07:56:08;31.35;;;19.00;;
846;SDS011;410;48.954;9.474;2023-02-15T07:58:13;24.20;;;17.33;;
846;SDS011;410;48.954;9.474;2023-02-15T08:00:19;26.33;;;18.80;;
846;SDS011;410;48.954;9.474;2023-02-15T08:02:25;28.88;;;19.20;;
846;SDS011;410;48.954;9.474;2023-02-15T08:04:28;25.70;;;18.05;;
846;SDS011;410;48.954;9.474;2023-02-15T08:06:32;24.65;;;17.63;;
846;SDS011;410;48.954;9.474;2023-02-15T08:08:36;28.15;;;17.83;;
846;SDS011;410;48.954;9.474;2023-02-15T08:10:39;30.25;;;18.38;;
846;SDS011;410;48.954;9.474;2023-02-15T08:13:00;22.05;;;17.10;;
846;SDS011;410;48.954;9.474;2023-02-15T08:15:03;24.00;;;16.70;;
846;SDS011;410;48.954;9.474;2023-02-15T08:17:10;28.10;;;18.60;;
846;SDS011;410;48.954;9.474;2023-02-15T08:19:15;25.55;;;17.52;;
846;SDS011;410;48.954;9.474;2023-02-15T08:21:20;24.15;;;18.17;;
846;SDS011;410;48.954;9.474;2023-02-15T08:23:25;26.90;;;18.08;;
846;SDS011;410;48.954;9.474;2023-02-15T08:25:29;31.17;;;20.00;;
846;SDS011;410;48.954;9.474;2023-02-15T08:27:32;25.48;;;17.67;;
846;SDS011;410;48.954;9.474;2023-02-15T08:29:36;24.35;;;17.90;;
846;SDS011;410;48.954;9.474;2023-02-15T08:31:41;26.90;;;17.75;;
846;SDS011;410;48.954;9.474;2023-02-15T08:33:46;22.75;;;16.42;;
846;SDS011;410;48.954;9.474;2023-02-15T08:35:51;27.85;;;17.35;;
846;SDS011;410;48.954;9.474;2023-02-15T08:37:54;21.92;;;15.57;;
846;SDS011;410;48.954;9.474;2023-02-15T08:39:57;24.45;;;17.80;;
846;SDS011;410;48.954;9.474;2023-02-15T08:42:00;24.08;;;17.52;;
846;SDS011;410;48.954;9.474;2023-02-15T08:44:04;23.48;;;16.75;;
846;SDS011;410;48.954;9.474;2023-02-15T08:46:09;22.40;;;16.45;;
846;SDS011;410;48.954;9.474;2023-02-15T08:48:13;21.33;;;16.40;;
846;SDS011;410;48.954;9.474;2023-02-15T08:50:17;21.98;;;15.50;;
846;SDS011;410;48.954;9.474;2023-02-15T08:52:21;18.48;;;15.00;;
846;SDS011;410;48.954;9.474;2023-02-15T08:54:24;20.48;;;14.80;;
846;SDS011;410;48.954;9.474;2023-02-15T08:56:28;20.35;;;16.05;;
846;SDS011;410;48.954;9.474;2023-02-15T08:58:33;21.88;;;15.18;;
846;SDS011;410;48.954;9.474;2023-02-15T09:00:36;21.80;;;16.17;;
846;SDS011;410;48.954;9.474;2023-02-15T09:02:39;20.35;;;15.25;;
846;SDS011;410;48.954;9.474;2023-02-15T09:04:42;20.35;;;15.73;;
846;SDS011;410;48.954;9.474;2023-02-15T09:06:47;21.27;;;15.48;;
846;SDS011;410;48.954;9.474;2023-02-15T09:08:52;20.42;;;16.33;;
846;SDS011;410;48.954;9.474;2023-02-15T09:11:03;20.42;;;16.08;;
846;SDS011;410;48.954;9.474;2023-02-15T09:13:08;23.70;;;17.77;;
846;SDS011;410;48.954;9.474;2023-02-15T09:15:11;21.25;;;16.08;;
846;SDS011;410;48.954;9.474;2023-02-15T09:17:14;22.98;;;15.88;;
846;SDS011;410;48.954;9.474;2023-02-15T09:19:18;19.25;;;16.30;;
846;SDS011;410;48.954;9.474;2023-02-15T09:21:22;19.52;;;15.77;;
846;SDS011;410;48.954;9.474;2023-02-15T09:23:27;21.10;;;16.63;;
846;SDS011;410;48.954;9.474;2023-02-15T09:25:30;19.50;;;15.75;;
846;SDS011;410;48.954;9.474;2023-02-15T09:27:34;22.20;;;16.58;;
846;SDS011;410;48.954;9.474;2023-02-15T09:29:38;21.42;;;15.40;;
846;SDS011;410;48.954;9.474;2023-02-15T09:31:42;22.27;;;16.38;;
846;SDS011;410;48.954;9.474;2023-02-15T09:33:47;21.50;;;15.90;;
846;SDS011;410;48.954;9.474;2023-02-15T09:35:50;21.02;;;16.20;;
846;SDS011;410;48.954;9.474;2023-02-15T09:37:54;22.20;;;16.80;;
846;SDS011;410;48.954;9.474;2023-02-15T09:39:58;21.90;;;17.60;;
846;SDS011;410;48.954;9.474;2023-02-15T09:42:09;20.40;;;15.68;;
846;SDS011;410;48.954;9.474;2023-02-15T09:44:21;22.85;;;16.10;;
846;SDS011;410;48.954;9.474;2023-02-15T09:46:36;20.27;;;15.52;;
846;SDS011;410;48.954;9.474;2023-02-15T09:48:47;19.50;;;15.30;;
846;SDS011;410;48.954;9.474;2023-02-15T09:50:55;21.35;;;17.20;;
846;SDS011;410;48.954;9.474;2023-02-15T09:53:19;23.80;;;17.50;;
846;SDS011;410;48.954;9.474;2023-02-15T09:55:36;23.75;;;16.75;;
846;SDS011;410;48.954;9.474;2023-02-15T09:57:44;23.20;;;17.00;;
846;SDS011;410;48.954;9.474;2023-02-15T09:59:55;22.88;;;17.45;;
846;SDS011;410;48.954;9.474;2023-02-15T10:02:20;23.45;;;17.67;;
846;SDS011;410;48.954;9.474;2023-02-15T10:04:34;23.85;;;17.73;;
846;SDS011;410;48.954;9.474;2023-02-15T10:06:47;23.05;;;17.42;;
846;SDS011;410;48.954;9.474;2023-02-15T10:09:02;21.25;;;17.00;;
846;SDS011;410;48.954;9.474;2023-02-15T10:11:11;21.00;;;16.83;;
846;SDS011;410;48.954;9.474;2023-02-15T10:13:36;23.83;;;17.77;;
846;SDS011;410;48.954;9.474;2023-02-15T10:15:52;23.02;;;17.30;;
846;SDS011;410;48.954;9.474;2023-02-15T10:18:02;22.88;;;17.15;;
846;SDS011;410;48.954;9.474;2023-02-15T10:20:16;26.38;;;19.13;;
846;SDS011;410;48.954;9.474;2023-02-15T10:22:28;23.42;;;17.83;;
846;SDS011;410;48.954;9.474;2023-02-15T10:24:51;23.75;;;17.73;;
846;SDS011;410;48.954;9.474;2023-02-15T10:27:06;21.58;;;17.13;;
846;SDS011;410;48.954;9.474;2023-02-15T10:29:16;25.40;;;19.20;;
846;SDS011;410;48.954;9.474;2023-02-15T10:31:26;21.80;;;17.25;;
846;SDS011;410;48.954;9.474;2023-02-15T10:33:34;21.58;;;16.90;;
846;SDS011;410;48.954;9.474;2023-02-15T10:35:42;21.65;;;17.08;;
846;SDS011;410;48.954;9.474;2023-02-15T10:37:53;23.25;;;17.23;;
846;SDS011;410;48.954;9.474;2023-02-15T10:40:08;21.13;;;16.90;;
846;SDS011;410;48.954;9.474;2023-02-15T10:42:18;23.60;;;17.98;;
846;SDS011;410;48.954;9.474;2023-02-15T10:44:34;22.35;;;17.92;;
846;SDS011;410;48.954;9.474;2023-02-15T10:46:51;23.10;;;17.60;;
846;SDS011;410;48.954;9.474;2023-02-15T10:49:08;21.75;;;16.55;;
846;SDS011;410;48.954;9.474;2023-02-15T10:51:24;22.10;;;16.95;;
846;SDS011;410;48.954;9.474;2023-02-15T10:53:37;22.52;;;17.00;;
846;SDS011;410;48.954;9.474;2023-02-15T10:55:51;21.00;;;17.10;;
846;SDS011;410;48.954;9.474;2023-02-15T10:58:02;22.30;;;18.17;;
846;SDS011;410;48.954;9.474;2023-02-15T11:00:12;21.25;;;17.25;;
846;SDS011;410;48.954;9.474;2023-02-15T11:02:18;22.42;;;17.52;;
846;SDS011;410;48.954;9.474;2023-02-15T11:04:32;20.55;;;16.98;;
846;SDS011;410;48.954;9.474;2023-02-15T11:06:49;21.50;;;17.30;;
846;SDS011;410;48.954;9.474;2023-02-15T11:08:55;20.87;;;17.30;;
846;SDS011;410;48.954;9.474;2023-02-15T11:11:12;21.10;;;16.88;;
846;SDS011;410;48.954;9.474;2023-02-15T11:13:20;21.65;;;18.08;;
846;SDS011;410;48.954;9.474;2023-02-15T11:15:26;21.17;;;17.43;;
846;SDS011;410;48.954;9.474;2023-02-15T11:17:34;21.13;;;16.35;;
846;SDS011;410;48.954;9.474;2023-02-15T11:19:39;23.60;;;17.20;;
846;SDS011;410;48.954;9.474;2023-02-15T11:21:46;22.00;;;18.17;;
846;SDS011;410;48.954;9.474;2023-02-15T11:23:52;21.40;;;18.17;;
846;SDS011;410;48.954;9.474;2023-02-15T11:25:56;21.00;;;18.15;;
846;SDS011;410;48.954;9.474;2023-02-15T11:28:01;20.63;;;17.90;;
846;SDS011;410;48.954;9.474;2023-02-15T11:30:10;21.97;;;18.23;;
846;SDS011;410;48.954;9.474;2023-02-15T11:32:18;21.57;;;18.17;;
846;SDS011;410;48.954;9.474;2023-02-15T11:34:25;23.50;;;17.80;;
846;SDS011;410;48.954;9.474;2023-02-15T11:36:32;23.47;;;18.30;;
846;SDS011;410;48.954;9.474;2023-02-15T11:38:36;20.23;;;17.77;;
846;SDS011;410;48.954;9.474;2023-02-15T11:40:43;20.67;;;17.07;;
846;SDS011;410;48.954;9.474;2023-02-15T11:42:51;21.00;;;17.30;;
846;SDS011;410;48.954;9.474;2023-02-15T11:44:58;21.20;;;17.20;;
846;SDS011;410;48.954;9.474;2023-02-15T11:47:08;20.33;;;16.63;;
846;SDS011;410;48.954;9.474;2023-02-15T11:49:20;24.50;;;18.03;;
846;SDS011;410;48.954;9.474;2023-02-15T11:51:26;18.30;;;15.90;;
846;SDS011;410;48.954;9.474;2023-02-15T11:53:31;20.90;;;16.97;;
846;SDS011;410;48.954;9.474;2023-02-15T11:55:36;20.60;;;16.73;;
846;SDS011;410;48.954;9.474;2023-02-15T11:57:40;21.47;;;18.30;;
846;SDS011;410;48.954;9.474;2023-02-15T11:59:46;20.10;;;16.20;;
846;SDS011;410;48.954;9.474;2023-02-15T12:01:51;18.47;;;14.60;;
846;SDS011;410;48.954;9.474;2023-02-15T12:03:56;19.50;;;15.27;;
846;SDS011;410;48.954;9.474;2023-02-15T12:06:02;19.33;;;15.80;;
846;SDS011;410;48.954;9.474;2023-02-15T12:08:09;18.00;;;16.20;;
846;SDS011;410;48.954;9.474;2023-02-15T12:10:17;21.93;;;17.67;;
846;SDS011;410;48.954;9.474;2023-02-15T12:12:24;22.87;;;19.33;;
846;SDS011;410;48.954;9.474;2023-02-15T12:14:28;21.77;;;18.30;;
846;SDS011;410;48.954;9.474;2023-02-15T12:16:50;23.63;;;18.90;;
846;SDS011;410;48.954;9.474;2023-02-15T12:18:57;24.33;;;18.30;;
846;SDS011;410;48.954;9.474;2023-02-15T12:21:02;21.37;;;18.00;;
846;SDS011;410;48.954;9.474;2023-02-15T12:23:12;24.50;;;18.60;;
846;SDS011;410;48.954;9.474;2023-02-15T12:25:20;21.50;;;18.37;;
846;SDS011;410;48.954;9.474;2023-02-15T12:27:26;23.23;;;18.83;;
846;SDS011;410;48.954;9.474;2023-02-15T12:29:33;22.00;;;19.13;;
846;SDS011;410;48.954;9.474;2023-02-15T12:31:39;21.57;;;18.53;;
846;SDS011;410;48.954;9.474;2023-02-15T12:33:43;25.83;;;18.40;;
846;SDS011;410;48.954;9.474;2023-02-15T12:35:54;21.87;;;18.00;;
846;SDS011;410;48.954;9.474;2023-02-15T12:38:00;22.53;;;17.83;;
846;SDS011;410;48.954;9.474;2023-02-15T12:40:18;20.50;;;17.00;;
846;SDS011;410;48.954;9.474;2023-02-15T12:42:23;22.47;;;17.10;;
846;SDS011;410;48.954;9.474;2023-02-15T12:44:27;21.67;;;17.80;;
846;SDS011;410;48.954;9.474;2023-02-15T12:46:31;20.83;;;17.33;;
846;SDS011;410;48.954;9.474;2023-02-15T12:48:38;24.13;;;17.17;;
846;SDS011;410;48.954;9.474;2023-02-15T12:50:42;24.83;;;19.37;;
846;SDS011;410;48.954;9.474;2023-02-15T12:52:48;23.20;;;18.17;;
846;SDS011;410;48.954;9.474;2023-02-15T12:54:52;19.70;;;16.57;;
846;SDS011;410;48.954;9.474;2023-02-15T12:56:56;16.67;;;14.87;;
846;SDS011;410;48.954;9.474;2023-02-15T12:59:04;19.33;;;16.13;;
846;SDS011;410;48.954;9.474;2023-02-15T13:01:11;21.07;;;16.27;;
846;SDS011;410;48.954;9.474;2023-02-15T13:03:16;20.03;;;15.63;;
846;SDS011;410;48.954;9.474;2023-02-15T13:05:21;21.23;;;15.30;;
846;SDS011;410;48.954;9.474;2023-02-15T13:07:30;18.30;;;14.57;;